Terminal Aerodrome Forecast
Issued by NWS

Current Version | Previous Version | Graphics & Text | Print | Product List | Glossary On
Versions: 1 2 3 4 5 6 7 8 9 10 11 12 13 14 15 16 17 18 19 20 21
000
FTUS41 KILN 011856 AAA
TAFLCK
TAF AMD
KLCK 011856Z 0119/0218 26012G20KT P6SM OVC035
      TEMPO 0119/0122 OVC025
     FM020000 26008KT P6SM OVC035
     FM021300 27012KT P6SM OVC025=

USA.gov is the U.S. government's official web portal to all federal, state and local government web resources and services.